createdAt,value
2018-03-04T00:00:24.360Z,0
2018-03-04T00:01:22.200Z,0
2018-03-04T00:02:22.767Z,0
2018-03-04T00:03:20.455Z,0
2018-03-04T00:04:24.775Z,0
2018-03-04T00:05:22.452Z,0
2018-03-04T00:06:48.976Z,0
2018-03-04T00:07:47.735Z,0
2018-03-04T00:08:46.594Z,0
2018-03-04T00:09:48.592Z,0
2018-03-04T00:10:47.887Z,0
2018-03-04T00:11:45.929Z,0
2018-03-04T00:13:11.265Z,0
2018-03-04T00:14:15.057Z,0
2018-03-04T00:15:12.249Z,0
2018-03-04T00:16:37.392Z,0
2018-03-04T00:17:34.347Z,0
2018-03-04T00:18:34.074Z,0
2018-03-04T00:19:59.017Z,0
2018-03-04T00:20:58.417Z,0
2018-03-04T00:22:00.680Z,0
2018-03-04T00:23:02.162Z,0
2018-03-04T00:23:58.823Z,0
2018-03-04T00:25:03.186Z,0
2018-03-04T00:25:58.858Z,0
2018-03-04T00:27:00.439Z,0
2018-03-04T00:28:01.136Z,0
2018-03-04T00:29:01.662Z,0
2018-03-04T00:30:07.703Z,0
2018-03-04T00:31:30.203Z,0
2018-03-04T00:32:26.402Z,0
2018-03-04T00:33:28.317Z,0
2018-03-04T00:34:33.893Z,0
2018-03-04T00:35:27.967Z,0
2018-03-04T00:36:35.920Z,0
2018-03-04T00:37:28.799Z,0
2018-03-04T00:38:27.870Z,0
2018-03-04T00:39:31.271Z,0
2018-03-04T00:40:27.241Z,0
2018-03-04T00:41:54.890Z,0
2018-03-04T00:42:52.132Z,0
2018-03-04T00:43:58.607Z,0
2018-03-04T00:44:56.124Z,0
2018-03-04T00:45:56.026Z,0
2018-03-04T00:46:54.572Z,0
2018-03-04T00:48:27.322Z,0
2018-03-04T00:49:30.715Z,0
2018-03-04T00:50:26.102Z,0
2018-03-04T00:51:26.451Z,0
2018-03-04T00:52:25.345Z,0
2018-03-04T00:53:24.639Z,0
2018-03-04T00:54:27.536Z,0
2018-03-04T00:55:56.287Z,0
2018-03-04T00:56:56.424Z,0
2018-03-04T00:57:52.312Z,0
2018-03-04T00:58:55.242Z,0
2018-03-04T00:59:50.587Z,0
2018-03-04T01:01:20.750Z,0
2018-03-04T01:02:23.159Z,0
2018-03-04T01:03:22.876Z,0
2018-03-04T01:04:22.797Z,0
2018-03-04T01:05:23.016Z,0
2018-03-04T01:06:21.040Z,0
2018-03-04T01:07:21.971Z,0
2018-03-04T01:08:24.552Z,0
2018-03-04T01:09:20.912Z,0
2018-03-04T01:10:22.212Z,0
2018-03-04T01:11:18.741Z,0
2018-03-04T01:12:21.988Z,0
2018-03-04T01:13:28.204Z,0
2018-03-04T01:14:22.429Z,0
2018-03-04T01:15:23.045Z,0
2018-03-04T01:17:02.439Z,0
2018-03-04T01:17:53.367Z,0
2018-03-04T01:18:57.453Z,0
2018-03-04T01:19:54.630Z,0
2018-03-04T01:20:56.672Z,0
2018-03-04T01:21:59.275Z,0
2018-03-04T01:22:53.920Z,0
2018-03-04T01:23:53.756Z,0
2018-03-04T01:24:56.017Z,0
2018-03-04T01:25:55.531Z,0
2018-03-04T01:26:52.860Z,0
2018-03-04T01:27:58.564Z,0
2018-03-04T01:28:48.973Z,0
2018-03-04T01:29:53.802Z,0
2018-03-04T01:30:50.830Z,0
2018-03-04T01:32:12.141Z,0
2018-03-04T01:33:18.593Z,0
2018-03-04T01:34:18.354Z,0
2018-03-04T01:35:18.021Z,0
2018-03-04T01:36:14.665Z,0
2018-03-04T01:37:14.747Z,0
2018-03-04T01:38:12.977Z,0
2018-03-04T01:39:16.080Z,0
2018-03-04T01:40:13.449Z,0
2018-03-04T01:41:14.067Z,0
2018-03-04T01:42:22.287Z,0
2018-03-04T01:43:15.117Z,0
2018-03-04T01:44:14.156Z,0
2018-03-04T01:45:13.234Z,0
2018-03-04T01:46:12.518Z,0
2018-03-04T01:47:17.339Z,0
2018-03-04T01:48:12.948Z,0
2018-03-04T01:49:38.470Z,0
2018-03-04T01:51:10.885Z,0
2018-03-04T01:52:11.220Z,0
2018-03-04T01:53:13.392Z,0
2018-03-04T01:54:12.231Z,0
2018-03-04T01:55:11.680Z,0
2018-03-04T01:56:09.815Z,0
2018-03-04T01:57:08.137Z,0
2018-03-04T01:58:12.636Z,0
2018-03-04T01:59:12.255Z,0
2018-03-04T02:00:13.948Z,0
2018-03-04T02:01:09.297Z,0
2018-03-04T02:02:12.732Z,0
2018-03-04T02:03:38.151Z,0
2018-03-04T02:04:35.154Z,0
2018-03-04T02:05:34.673Z,0
2018-03-04T02:06:35.658Z,0
2018-03-04T02:07:39.828Z,0
2018-03-04T02:08:39.599Z,0
2018-03-04T02:10:05.991Z,0
2018-03-04T02:10:58.292Z,0
2018-03-04T02:11:58.643Z,0
2018-03-04T02:13:02.314Z,0
2018-03-04T02:13:57.973Z,0
2018-03-04T02:14:54.903Z,0
2018-03-04T02:15:56.713Z,0
2018-03-04T02:16:54.610Z,0
2018-03-04T02:18:26.430Z,0
2018-03-04T02:19:32.680Z,0
2018-03-04T02:20:32.507Z,0
2018-03-04T02:21:35.869Z,0
2018-03-04T02:23:19.381Z,0
2018-03-04T02:24:11.023Z,0
2018-03-04T02:25:14.470Z,0
2018-03-04T02:26:12.739Z,0
2018-03-04T02:27:14.207Z,0
2018-03-04T02:28:09.959Z,0
2018-03-04T02:29:09.690Z,0
2018-03-04T02:30:06.997Z,0
2018-03-04T02:31:11.419Z,0
2018-03-04T02:32:25.810Z,0
2018-03-04T02:33:07.357Z,0
2018-03-04T02:34:16.593Z,0
2018-03-04T02:35:13.413Z,0
2018-03-04T02:37:20.750Z,0
2018-03-04T02:38:54.972Z,0
2018-03-04T02:39:48.093Z,0
2018-03-04T02:40:48.570Z,0
2018-03-04T02:41:57.597Z,0
2018-03-04T02:42:48.209Z,0
2018-03-04T02:43:49.318Z,0
2018-03-04T02:44:49.404Z,0
2018-03-04T02:45:51.479Z,0
2018-03-04T02:46:46.558Z,0
2018-03-04T02:47:52.348Z,0
2018-03-04T02:48:49.906Z,0
2018-03-04T02:50:21.111Z,0
2018-03-04T02:51:13.788Z,0
2018-03-04T02:52:22.238Z,0
2018-03-04T02:53:14.739Z,0
2018-03-04T02:54:23.937Z,0
2018-03-04T02:55:13.855Z,0
2018-03-04T02:56:11.950Z,0
2018-03-04T02:57:18.446Z,0
2018-03-04T02:58:14.590Z,0
2018-03-04T02:59:19.858Z,0
2018-03-04T03:00:14.659Z,0
2018-03-04T03:01:17.253Z,0
2018-03-04T03:02:12.662Z,0
2018-03-04T03:03:14.443Z,0
2018-03-04T03:04:13.320Z,0
2018-03-04T03:05:17.521Z,0
2018-03-04T03:06:40.810Z,0
2018-03-04T03:07:41.294Z,0
2018-03-04T03:08:46.425Z,0
2018-03-04T03:09:43.523Z,0
2018-03-04T03:11:07.723Z,0
2018-03-04T03:12:04.496Z,0
2018-03-04T03:13:11.671Z,0
2018-03-04T03:14:09.606Z,0
2018-03-04T03:15:12.133Z,0
2018-03-04T03:16:10.032Z,0
2018-03-04T03:17:06.989Z,0
2018-03-04T03:18:15.800Z,0
2018-03-04T03:19:15.239Z,0
2018-03-04T03:21:45.883Z,0
2018-03-04T03:23:14.457Z,0
2018-03-04T03:24:11.811Z,0
2018-03-04T03:25:18.354Z,0
2018-03-04T03:26:13.205Z,0
2018-03-04T03:27:14.456Z,0
2018-03-04T03:28:18.325Z,0
2018-03-04T03:29:27.914Z,0
2018-03-04T03:30:19.839Z,0
2018-03-04T03:31:21.066Z,0
2018-03-04T03:32:25.857Z,0
2018-03-04T03:33:45.531Z,0
2018-03-04T03:35:59.618Z,0
2018-03-04T03:36:55.402Z,0
2018-03-04T03:37:51.527Z,0
2018-03-04T03:38:50.719Z,0
2018-03-04T03:39:48.854Z,0
2018-03-04T03:41:01.700Z,0
2018-03-04T03:41:53.885Z,0
2018-03-04T03:42:49.537Z,0
2018-03-04T03:43:54.139Z,0
2018-03-04T03:44:52.275Z,0
2018-03-04T03:46:18.145Z,0
2018-03-04T03:47:44.318Z,0
2018-03-04T03:48:57.516Z,0
2018-03-04T03:49:48.365Z,0
2018-03-04T03:50:52.443Z,0
2018-03-04T03:51:49.927Z,0
2018-03-04T03:52:49.220Z,0
2018-03-04T03:53:53.075Z,0
2018-03-04T03:54:55.086Z,0
2018-03-04T03:55:51.268Z,0
2018-03-04T03:57:03.877Z,0
2018-03-04T03:57:40.493Z,0
2018-03-04T03:58:40.866Z,0
2018-03-04T03:59:41.969Z,0
2018-03-04T04:01:02.030Z,0
2018-03-04T04:02:02.832Z,0
2018-03-04T04:03:23.582Z,0
2018-03-04T04:04:24.424Z,0
2018-03-04T04:05:24.124Z,0
2018-03-04T04:07:08.547Z,0
2018-03-04T04:08:22.686Z,0
2018-03-04T04:09:09.070Z,0
2018-03-04T04:10:09.033Z,0
2018-03-04T04:11:31.443Z,0
2018-03-04T04:12:31.991Z,0
2018-03-04T04:13:31.903Z,0
2018-03-04T04:14:31.230Z,0
2018-03-04T04:15:32.012Z,0
2018-03-04T04:16:31.589Z,0
2018-03-04T04:17:32.441Z,0
2018-03-04T04:18:32.406Z,0
2018-03-04T04:19:32.417Z,0
2018-03-04T04:20:31.896Z,0
2018-03-04T04:21:31.732Z,0
2018-03-04T04:22:32.126Z,0
2018-03-04T04:23:53.741Z,0
2018-03-04T04:24:54.558Z,0
2018-03-04T04:25:54.226Z,0
2018-03-04T04:26:53.768Z,0
2018-03-04T04:27:54.164Z,0
2018-03-04T04:28:54.168Z,0
2018-03-04T04:29:53.779Z,0
2018-03-04T04:30:54.164Z,0
2018-03-04T04:31:53.665Z,0
2018-03-04T04:32:54.141Z,0
2018-03-04T04:33:53.597Z,0
2018-03-04T04:34:54.428Z,0
2018-03-04T04:35:53.902Z,0
2018-03-04T04:36:54.293Z,0
2018-03-04T04:37:53.870Z,0
2018-03-04T04:38:54.080Z,0
2018-03-04T04:39:53.533Z,0
2018-03-04T04:40:54.483Z,0
2018-03-04T04:41:54.220Z,0
2018-03-04T04:42:54.154Z,0
2018-03-04T04:43:53.654Z,0
2018-03-04T04:44:54.258Z,0
2018-03-04T04:45:54.158Z,0
2018-03-04T04:46:54.081Z,0
2018-03-04T04:47:54.095Z,0
2018-03-04T04:49:35.993Z,0
2018-03-04T04:50:36.515Z,0
2018-03-04T04:51:58.130Z,0
2018-03-04T04:52:58.706Z,0
2018-03-04T04:53:58.266Z,0
2018-03-04T04:54:59.030Z,0
2018-03-04T04:55:58.358Z,0
2018-03-04T04:57:19.066Z,0
2018-03-04T04:58:19.468Z,0
2018-03-04T04:59:20.231Z,0
2018-03-04T05:00:20.113Z,0
2018-03-04T05:01:19.497Z,0
2018-03-04T05:02:20.179Z,0
2018-03-04T05:03:20.375Z,0
2018-03-04T05:04:20.173Z,0
2018-03-04T05:05:19.899Z,0
2018-03-04T05:06:19.573Z,0
2018-03-04T05:07:20.430Z,0
2018-03-04T05:08:20.455Z,0
2018-03-04T05:09:19.700Z,0
2018-03-04T05:10:20.374Z,0
2018-03-04T05:11:41.434Z,0
2018-03-04T05:13:03.895Z,0
2018-03-04T05:14:04.734Z,0
2018-03-04T05:15:04.642Z,0
2018-03-04T05:16:04.481Z,0
2018-03-04T05:17:04.326Z,0
2018-03-04T05:18:04.158Z,0
2018-03-04T05:19:04.126Z,0
2018-03-04T05:20:04.016Z,0
2018-03-04T05:21:04.886Z,0
2018-03-04T05:22:04.727Z,0
2018-03-04T05:23:04.466Z,0
2018-03-04T05:24:25.627Z,0
2018-03-04T05:25:26.064Z,0
2018-03-04T05:26:46.998Z,0
2018-03-04T05:27:47.459Z,0
2018-03-04T05:28:46.781Z,0
2018-03-04T05:29:46.994Z,0
2018-03-04T05:30:47.318Z,0
2018-03-04T05:31:46.904Z,0
2018-03-04T05:32:47.283Z,0
2018-03-04T05:33:47.169Z,0
2018-03-04T05:34:46.639Z,0
2018-03-04T05:35:47.442Z,0
2018-03-04T05:37:29.613Z,0
2018-03-04T05:38:30.267Z,0
2018-03-04T05:39:30.228Z,0
2018-03-04T05:40:30.161Z,0
2018-03-04T05:41:29.497Z,0
2018-03-04T05:42:30.397Z,0
2018-03-04T05:43:51.079Z,0
2018-03-04T05:44:51.913Z,0
2018-03-04T05:46:13.154Z,0
2018-03-04T05:47:14.143Z,0
2018-03-04T05:48:44.034Z,0
2018-03-04T05:49:44.622Z,0
2018-03-04T05:50:44.679Z,0
2018-03-04T05:51:44.390Z,0
2018-03-04T05:52:44.127Z,0
2018-03-04T05:53:44.125Z,0
2018-03-04T05:54:44.422Z,0
2018-03-04T05:56:05.401Z,0
2018-03-04T05:57:05.977Z,0
2018-03-04T05:58:05.302Z,0
2018-03-04T05:59:05.727Z,0
2018-03-04T06:00:06.480Z,0
2018-03-04T06:01:06.120Z,0
2018-03-04T06:02:06.003Z,0
2018-03-04T06:03:27.511Z,1
2018-03-04T06:04:27.853Z,1
2018-03-04T06:05:27.264Z,1
2018-03-04T06:06:28.310Z,1
2018-03-04T06:07:28.256Z,1
2018-03-04T06:08:27.967Z,1
2018-03-04T06:09:27.857Z,1
2018-03-04T06:10:27.686Z,1
2018-03-04T06:11:28.149Z,1
2018-03-04T06:12:27.667Z,1
2018-03-04T06:13:28.546Z,1
2018-03-04T06:14:28.358Z,2
2018-03-04T06:15:28.155Z,2
2018-03-04T06:16:28.197Z,2
2018-03-04T06:17:27.768Z,2
2018-03-04T06:18:27.613Z,2
2018-03-04T06:19:28.408Z,2
2018-03-04T06:20:49.936Z,2
2018-03-04T06:21:50.683Z,2
2018-03-04T06:22:50.576Z,3
2018-03-04T06:23:50.455Z,3
2018-03-04T06:24:50.384Z,3
2018-03-04T06:25:50.212Z,4
2018-03-04T06:27:15.197Z,4
2018-03-04T06:28:12.754Z,5
2018-03-04T06:29:13.070Z,5
2018-03-04T06:30:14.368Z,5
2018-03-04T06:31:15.487Z,5
2018-03-04T06:32:14.717Z,5
2018-03-04T06:33:18.491Z,6
2018-03-04T06:34:13.283Z,6
2018-03-04T06:35:12.552Z,7
2018-03-04T06:36:35.809Z,7
2018-03-04T06:37:36.171Z,8
2018-03-04T06:39:19.775Z,9
2018-03-04T06:40:18.327Z,10
2018-03-04T06:41:39.137Z,11
2018-03-04T06:42:39.926Z,11
2018-03-04T06:43:39.449Z,11
2018-03-04T06:44:39.907Z,11
2018-03-04T06:45:39.433Z,11
2018-03-04T06:47:02.190Z,12
2018-03-04T06:48:24.407Z,12
2018-03-04T06:49:24.856Z,12
2018-03-04T06:50:27.710Z,13
2018-03-04T06:51:25.304Z,14
2018-03-04T06:52:48.899Z,18
2018-03-04T06:53:50.092Z,20
2018-03-04T06:54:48.969Z,21
2018-03-04T06:55:50.601Z,23
2018-03-04T06:56:48.724Z,23
2018-03-04T06:57:48.559Z,23
2018-03-04T06:58:49.172Z,23
2018-03-04T06:59:49.192Z,24
2018-03-04T07:01:33.320Z,26
2018-03-04T07:02:34.321Z,27
2018-03-04T07:03:33.720Z,28
2018-03-04T07:04:34.941Z,28
2018-03-04T07:05:35.780Z,29
2018-03-04T07:06:33.835Z,30
2018-03-04T07:07:33.972Z,30
2018-03-04T07:08:33.779Z,29
2018-03-04T07:09:33.927Z,29
2018-03-04T07:10:56.705Z,29
2018-03-04T07:11:57.480Z,29
2018-03-04T07:12:56.935Z,29
2018-03-04T07:13:57.117Z,29
2018-03-04T07:14:56.977Z,28
2018-03-04T07:15:56.569Z,26
2018-03-04T07:17:19.266Z,22
2018-03-04T07:18:19.005Z,21
2018-03-04T07:19:18.860Z,21
2018-03-04T07:20:21.038Z,22
2018-03-04T07:21:18.859Z,23
2018-03-04T07:22:20.223Z,24
2018-03-04T07:23:19.549Z,25
2018-03-04T07:24:19.350Z,27
2018-03-04T07:25:18.939Z,29
2018-03-04T07:26:20.074Z,30
2018-03-04T07:27:19.779Z,31
2018-03-04T07:28:19.680Z,33
2018-03-04T07:29:20.788Z,36
2018-03-04T07:30:19.468Z,40
2018-03-04T07:31:19.655Z,45
2018-03-04T07:32:20.056Z,47
2018-03-04T07:33:19.126Z,47
2018-03-04T07:34:19.155Z,48
2018-03-04T07:35:19.806Z,52
2018-03-04T07:36:18.834Z,55
2018-03-04T07:37:18.567Z,58
2018-03-04T07:38:20.195Z,59
2018-03-04T07:39:19.763Z,60
2018-03-04T07:40:18.929Z,60
2018-03-04T07:41:18.534Z,61
2018-03-04T07:42:20.456Z,62
2018-03-04T07:43:20.254Z,65
2018-03-04T07:44:18.562Z,67
2018-03-04T07:45:19.533Z,68
2018-03-04T07:46:19.534Z,67
2018-03-04T07:47:19.661Z,67
2018-03-04T07:48:18.587Z,69
2018-03-04T07:49:18.925Z,71
2018-03-04T07:50:19.122Z,73
2018-03-04T07:51:18.578Z,76
2018-03-04T07:52:20.614Z,77
2018-03-04T07:53:19.668Z,78
2018-03-04T07:54:19.540Z,79
2018-03-04T07:55:20.569Z,81
2018-03-04T07:56:22.595Z,83
2018-03-04T07:57:19.385Z,87
2018-03-04T07:58:19.211Z,88
2018-03-04T07:59:20.174Z,89
2018-03-04T08:00:20.556Z,91
2018-03-04T08:01:19.485Z,92
2018-03-04T08:03:04.206Z,94
2018-03-04T08:04:04.622Z,92
2018-03-04T08:05:04.378Z,87
2018-03-04T08:06:03.957Z,81
2018-03-04T08:07:06.369Z,79
2018-03-04T08:08:48.202Z,78
2018-03-04T08:09:50.254Z,78
2018-03-04T08:11:10.885Z,77
2018-03-04T08:12:10.777Z,77
2018-03-04T08:13:10.796Z,75
2018-03-04T08:14:10.288Z,74
2018-03-04T08:15:11.513Z,74
2018-03-04T08:16:12.016Z,75
2018-03-04T08:17:32.452Z,81
2018-03-04T08:18:32.981Z,88
2018-03-04T08:19:32.597Z,96
2018-03-04T08:20:33.186Z,103
2018-03-04T08:21:32.655Z,106
2018-03-04T08:24:02.193Z,99
2018-03-04T08:25:03.106Z,98
2018-03-04T08:26:02.897Z,97
2018-03-04T08:27:02.902Z,98
2018-03-04T08:28:02.432Z,99
2018-03-04T08:29:02.581Z,98
2018-03-04T08:30:02.738Z,97
2018-03-04T08:31:04.477Z,98
2018-03-04T08:32:02.906Z,100
2018-03-04T08:33:03.181Z,101
2018-03-04T08:34:03.094Z,101
2018-03-04T08:35:03.318Z,105
2018-03-04T08:36:13.866Z,107
2018-03-04T08:37:02.631Z,106
2018-03-04T08:38:03.509Z,103
2018-03-04T08:39:49.823Z,101
2018-03-04T08:40:52.395Z,102
2018-03-04T08:41:57.170Z,104
2018-03-04T08:42:52.191Z,110
2018-03-04T08:43:49.742Z,115
2018-03-04T08:44:51.368Z,116
2018-03-04T08:45:49.547Z,118
2018-03-04T08:46:49.977Z,122
2018-03-04T08:47:51.507Z,125
2018-03-04T08:48:51.168Z,125
2018-03-04T08:49:49.310Z,122
2018-03-04T08:51:40.080Z,117
2018-03-04T08:52:39.600Z,121
2018-03-04T08:53:41.743Z,123
2018-03-04T08:55:04.691Z,126
2018-03-04T08:56:05.536Z,126
2018-03-04T08:57:03.225Z,124
2018-03-04T08:58:22.767Z,122
2018-03-04T08:59:43.909Z,128
2018-03-04T09:00:45.045Z,140
2018-03-04T09:02:06.779Z,146
2018-03-04T09:03:31.858Z,145
2018-03-04T09:04:52.545Z,138
2018-03-04T09:05:52.374Z,133
2018-03-04T09:07:20.337Z,130
2018-03-04T09:07:54.121Z,128
2018-03-04T09:08:55.303Z,126
2018-03-04T09:10:15.559Z,130
2018-03-04T09:11:16.022Z,137
2018-03-04T09:12:38.473Z,140
2018-03-04T09:14:01.296Z,141
2018-03-04T09:15:01.460Z,140
2018-03-04T09:16:01.925Z,138
2018-03-04T09:17:00.643Z,141
2018-03-04T09:18:23.539Z,144
2018-03-04T09:19:24.093Z,144
2018-03-04T09:20:23.160Z,143
2018-03-04T09:21:22.829Z,136
2018-03-04T09:22:46.069Z,130
2018-03-04T09:24:11.624Z,130
2018-03-04T09:25:11.967Z,134
2018-03-04T09:26:36.065Z,138
2018-03-04T09:27:34.757Z,141
2018-03-04T09:28:35.673Z,145
2018-03-04T09:29:34.780Z,147
2018-03-04T09:30:33.818Z,147
2018-03-04T09:31:58.841Z,141
2018-03-04T09:33:08.503Z,132
2018-03-04T09:33:58.608Z,125
2018-03-04T09:34:58.893Z,124
2018-03-04T09:35:57.780Z,124
2018-03-04T09:36:59.880Z,124
2018-03-04T09:37:58.957Z,123
2018-03-04T09:38:58.774Z,123
2018-03-04T09:39:58.958Z,126
2018-03-04T09:40:58.216Z,131
2018-03-04T09:41:57.982Z,135
2018-03-04T09:42:58.105Z,136
2018-03-04T09:43:57.842Z,133
2018-03-04T09:44:59.921Z,131
2018-03-04T09:46:01.931Z,133
2018-03-04T09:47:20.699Z,132
2018-03-04T09:48:22.131Z,129
2018-03-04T09:49:21.426Z,128
2018-03-04T09:50:21.404Z,127
2018-03-04T09:51:42.138Z,132
2018-03-04T09:52:42.358Z,140
2018-03-04T09:53:43.214Z,148
2018-03-04T09:54:42.187Z,154
2018-03-04T09:55:43.216Z,161
2018-03-04T09:56:42.272Z,171
2018-03-04T09:57:42.500Z,181
2018-03-04T09:58:43.436Z,180
2018-03-04T09:59:42.303Z,180
2018-03-04T10:00:42.427Z,181
2018-03-04T10:01:42.687Z,179
2018-03-04T10:02:43.556Z,177
2018-03-04T10:03:42.809Z,173
2018-03-04T10:04:42.613Z,168
2018-03-04T10:05:42.573Z,163
2018-03-04T10:06:42.796Z,156
2018-03-04T10:07:44.516Z,151
2018-03-04T10:08:42.625Z,148
2018-03-04T10:09:43.530Z,145
2018-03-04T10:10:42.330Z,140
2018-03-04T10:11:43.142Z,140
2018-03-04T10:12:42.194Z,143
2018-03-04T10:13:43.067Z,151
2018-03-04T10:14:41.812Z,158
2018-03-04T10:15:43.021Z,164
2018-03-04T10:16:42.196Z,173
2018-03-04T10:17:41.900Z,180
2018-03-04T10:18:43.179Z,189
2018-03-04T10:19:43.221Z,231
2018-03-04T10:20:42.359Z,243
2018-03-04T10:21:42.051Z,195
2018-03-04T10:22:41.988Z,194
2018-03-04T10:23:43.643Z,199
2018-03-04T10:25:05.207Z,200
2018-03-04T10:26:06.856Z,214
2018-03-04T10:27:06.426Z,212
2018-03-04T10:28:11.646Z,215
2018-03-04T10:29:06.032Z,207
2018-03-04T10:30:06.020Z,214
2018-03-04T10:31:06.152Z,190
2018-03-04T10:32:06.341Z,171
2018-03-04T10:33:05.766Z,156
2018-03-04T10:34:06.029Z,152
2018-03-04T10:35:07.418Z,163
2018-03-04T10:36:04.954Z,182
2018-03-04T10:37:10.463Z,195
2018-03-04T10:38:05.925Z,183
2018-03-04T10:39:28.445Z,169
2018-03-04T10:40:29.498Z,165
2018-03-04T10:41:50.483Z,164
2018-03-04T10:42:51.326Z,165
2018-03-04T10:43:51.509Z,169
2018-03-04T10:45:57.461Z,179
2018-03-04T10:46:58.291Z,176
2018-03-04T10:47:58.840Z,169
2018-03-04T10:48:58.780Z,156
2018-03-04T10:49:58.141Z,143
2018-03-04T10:50:59.007Z,140
2018-03-04T10:51:58.541Z,155
2018-03-04T10:52:57.787Z,187
2018-03-04T10:54:02.013Z,232
2018-03-04T10:54:58.173Z,226
2018-03-04T10:55:58.823Z,185
2018-03-04T10:56:58.246Z,151
2018-03-04T10:57:57.950Z,136
2018-03-04T10:58:57.987Z,132
2018-03-04T11:00:00.190Z,132
2018-03-04T11:00:57.443Z,137
2018-03-04T11:01:59.086Z,152
2018-03-04T11:03:19.709Z,169
2018-03-04T11:04:43.377Z,148
2018-03-04T11:05:45.913Z,128
2018-03-04T11:06:46.262Z,116
2018-03-04T11:07:43.239Z,112
2018-03-04T11:08:44.030Z,117
2018-03-04T11:09:43.847Z,132
2018-03-04T11:10:42.879Z,162
2018-03-04T11:11:43.081Z,177
2018-03-04T11:12:43.104Z,174
2018-03-04T11:13:43.064Z,175
2018-03-04T11:14:42.637Z,181
2018-03-04T11:15:43.560Z,189
2018-03-04T11:16:43.100Z,198
2018-03-04T11:17:51.146Z,203
2018-03-04T11:18:48.660Z,205
2018-03-04T11:19:46.803Z,206
2018-03-04T11:20:44.499Z,209
2018-03-04T11:21:44.556Z,216
2018-03-04T11:23:07.262Z,218
2018-03-04T11:24:33.688Z,205
2018-03-04T11:25:33.622Z,194
2018-03-04T11:26:33.357Z,186
2018-03-04T11:27:33.230Z,176
2018-03-04T11:28:35.486Z,168
2018-03-04T11:29:57.181Z,160
2018-03-04T11:30:56.958Z,154
2018-03-04T11:32:21.327Z,149
2018-03-04T11:33:21.865Z,147
2018-03-04T11:34:43.822Z,153
2018-03-04T11:37:16.646Z,169
2018-03-04T11:38:38.533Z,177
2018-03-04T11:39:52.936Z,188
2018-03-04T11:40:43.453Z,198
2018-03-04T11:42:07.066Z,205
2018-03-04T11:45:29.887Z,201
2018-03-04T11:46:29.373Z,206
2018-03-04T11:48:53.706Z,238
2018-03-04T11:50:08.850Z,296
2018-03-04T11:51:00.332Z,413
2018-03-04T11:52:06.614Z,289
2018-03-04T11:53:18.502Z,268
2018-03-04T11:54:22.790Z,257
2018-03-04T11:55:47.869Z,247
2018-03-04T11:56:55.349Z,308
2018-03-04T11:57:57.100Z,271
2018-03-04T11:58:49.356Z,292
2018-03-04T11:59:56.806Z,283
2018-03-04T12:00:51.534Z,357
2018-03-04T12:01:53.680Z,457
2018-03-04T12:02:54.003Z,326
2018-03-04T12:03:56.097Z,458
2018-03-04T12:04:57.996Z,511
2018-03-04T12:05:52.000Z,492
2018-03-04T12:06:47.611Z,474
2018-03-04T12:07:52.465Z,462
2018-03-04T12:09:21.862Z,445
2018-03-04T12:10:17.346Z,437
2018-03-04T12:11:22.073Z,429
2018-03-04T12:12:17.748Z,428
2018-03-04T12:13:47.457Z,425
2018-03-04T12:15:25.969Z,415
2018-03-04T12:16:10.154Z,421
2018-03-04T12:17:13.699Z,409
2018-03-04T12:19:46.867Z,384
2018-03-04T12:20:42.647Z,403
2018-03-04T12:21:41.604Z,394
2018-03-04T12:22:43.006Z,375
2018-03-04T12:23:46.724Z,365
2018-03-04T12:25:10.944Z,360
2018-03-04T12:26:05.811Z,372
2018-03-04T12:27:08.101Z,378
2018-03-04T12:28:04.840Z,302
2018-03-04T12:29:06.435Z,390
2018-03-04T12:30:37.247Z,320
2018-03-04T12:31:35.909Z,380
2018-03-04T12:32:50.587Z,366
2018-03-04T12:33:46.381Z,326
2018-03-04T12:34:36.361Z,271
2018-03-04T12:35:36.208Z,218
2018-03-04T12:36:34.601Z,231
2018-03-04T12:37:32.934Z,274
2018-03-04T12:38:33.168Z,208
2018-03-04T12:39:33.630Z,220
2018-03-04T12:40:33.148Z,218
2018-03-04T12:41:33.843Z,230
2018-03-04T12:42:33.252Z,224
2018-03-04T12:43:37.969Z,247
2018-03-04T12:45:23.433Z,419
2018-03-04T12:46:24.359Z,432
2018-03-04T12:47:26.978Z,418
2018-03-04T12:48:26.467Z,456
2018-03-04T12:49:25.858Z,452
2018-03-04T12:50:24.014Z,438
2018-03-04T12:51:23.892Z,438
2018-03-04T12:52:26.479Z,430
2018-03-04T12:53:23.509Z,413
2018-03-04T12:54:24.299Z,396
2018-03-04T12:55:22.807Z,391
2018-03-04T12:56:24.408Z,389
2018-03-04T12:57:28.615Z,376
2018-03-04T12:58:25.528Z,370
2018-03-04T12:59:22.720Z,367
2018-03-04T13:00:24.064Z,346
2018-03-04T13:01:22.050Z,335
2018-03-04T13:02:44.753Z,341
2018-03-04T13:03:44.765Z,338
2018-03-04T13:04:45.098Z,334
2018-03-04T13:05:50.132Z,332
2018-03-04T13:06:45.122Z,331
2018-03-04T13:07:45.100Z,338
2018-03-04T13:09:16.014Z,342
2018-03-04T13:10:10.766Z,338
2018-03-04T13:11:09.843Z,333
2018-03-04T13:12:10.035Z,349
2018-03-04T13:13:09.746Z,340
2018-03-04T13:14:10.175Z,323
2018-03-04T13:15:32.402Z,331
2018-03-04T13:16:32.746Z,348
2018-03-04T13:17:33.746Z,348
2018-03-04T13:18:56.242Z,348
2018-03-04T13:19:55.261Z,350
2018-03-04T13:20:54.988Z,350
2018-03-04T13:21:56.039Z,335
2018-03-04T13:22:57.531Z,320
2018-03-04T13:23:55.433Z,327
2018-03-04T13:24:55.864Z,342
2018-03-04T13:25:54.954Z,333
2018-03-04T13:26:56.420Z,309
2018-03-04T13:27:54.643Z,297
2018-03-04T13:28:54.838Z,305
2018-03-04T13:29:55.044Z,292
2018-03-04T13:31:17.444Z,266
2018-03-04T13:32:17.798Z,257
2018-03-04T13:33:17.969Z,253
2018-03-04T13:34:17.033Z,255
2018-03-04T13:35:18.959Z,273
2018-03-04T13:36:17.796Z,288
2018-03-04T13:37:18.389Z,304
2018-03-04T13:38:17.119Z,301
2018-03-04T13:39:20.164Z,317
2018-03-04T13:40:17.784Z,309
2018-03-04T13:43:13.301Z,276
2018-03-04T13:44:10.881Z,297
2018-03-04T13:45:32.708Z,299
2018-03-04T13:46:33.475Z,301
2018-03-04T13:47:33.858Z,303
2018-03-04T13:48:33.068Z,301
2018-03-04T13:49:32.784Z,308
2018-03-04T13:50:34.010Z,297
2018-03-04T13:51:33.582Z,297
2018-03-04T13:52:33.307Z,294
2018-03-04T13:53:33.016Z,290
2018-03-04T13:54:54.484Z,276
2018-03-04T13:55:54.166Z,275
2018-03-04T13:56:53.925Z,275
2018-03-04T13:57:54.602Z,266
2018-03-04T13:58:54.386Z,264
2018-03-04T13:59:54.263Z,266
2018-03-04T14:00:54.540Z,262
2018-03-04T14:01:54.192Z,264
2018-03-04T14:02:54.863Z,258
2018-03-04T14:03:54.935Z,247
2018-03-04T14:04:54.656Z,241
2018-03-04T14:05:54.374Z,238
2018-03-04T14:06:54.592Z,247
2018-03-04T14:07:54.475Z,252
2018-03-04T14:08:54.353Z,255
2018-03-04T14:09:54.972Z,259
2018-03-04T14:10:54.242Z,264
2018-03-04T14:11:54.313Z,268
2018-03-04T14:12:54.127Z,276
2018-03-04T14:13:55.091Z,266
2018-03-04T14:14:55.651Z,264
2018-03-04T14:15:55.435Z,263
2018-03-04T14:16:54.631Z,257
2018-03-04T14:17:54.900Z,258
2018-03-04T14:18:54.936Z,257
2018-03-04T14:19:54.681Z,249
2018-03-04T14:20:54.378Z,248
2018-03-04T14:21:54.930Z,244
2018-03-04T14:22:54.904Z,237
2018-03-04T14:23:56.192Z,234
2018-03-04T14:24:54.094Z,233
2018-03-04T14:25:54.718Z,240
2018-03-04T14:26:54.486Z,244
2018-03-04T14:27:55.773Z,231
2018-03-04T14:28:54.421Z,227
2018-03-04T14:29:54.600Z,227
2018-03-04T14:31:25.333Z,220
2018-03-04T14:32:25.256Z,201
2018-03-04T14:33:25.518Z,184
2018-03-04T14:34:25.221Z,181
2018-03-04T14:35:25.103Z,182
2018-03-04T14:36:24.988Z,187
2018-03-04T14:37:26.562Z,184
2018-03-04T14:38:25.698Z,181
2018-03-04T14:39:46.254Z,180
2018-03-04T14:40:46.329Z,189
2018-03-04T14:41:47.293Z,181
2018-03-04T14:42:46.553Z,179
2018-03-04T14:43:46.761Z,186
2018-03-04T14:44:47.043Z,185
2018-03-04T14:45:47.607Z,179
2018-03-04T14:46:46.834Z,182
2018-03-04T14:47:46.962Z,169
2018-03-04T14:48:47.171Z,160
2018-03-04T14:49:45.848Z,137
2018-03-04T14:51:29.337Z,108
2018-03-04T14:52:30.099Z,109
2018-03-04T14:53:29.668Z,112
2018-03-04T14:54:29.376Z,120
2018-03-04T14:55:52.536Z,119
2018-03-04T14:56:53.883Z,124
2018-03-04T14:57:52.601Z,121
2018-03-04T14:58:53.893Z,128
2018-03-04T14:59:52.554Z,141
2018-03-04T15:00:53.445Z,151
2018-03-04T15:01:53.323Z,154
2018-03-04T15:02:53.367Z,153
2018-03-04T15:03:52.960Z,154
2018-03-04T15:05:14.933Z,148
2018-03-04T15:06:36.928Z,134
2018-03-04T15:07:38.958Z,128
2018-03-04T15:08:37.070Z,127
2018-03-04T15:09:37.772Z,120
2018-03-04T15:10:59.194Z,115
2018-03-04T15:11:59.779Z,121
2018-03-04T15:12:59.788Z,117
2018-03-04T15:14:00.293Z,125
2018-03-04T15:15:00.048Z,128
2018-03-04T15:16:00.108Z,113
2018-03-04T15:17:00.665Z,118
2018-03-04T15:18:22.914Z,111
2018-03-04T15:19:22.929Z,113